Time,TemperatureF,DewpointF,PressureIn,WindDirection,WindDirectionDegrees,WindSpeedMPH,WindSpeedGustMPH,Humidity,HourlyPrecipIn,Conditions,Clouds,dailyrainin,SoftwareType,DateUTC
2013-02-06 00:08:00,27.0,26.5,29.84,WSW,247,2.2,-999.0,98,-99.99,,,0.00,Acu-Link.com,2013-02-06 05:08:00,
2013-02-06 00:23:00,27.0,26.5,29.84,SW,225,0.0,-999.0,98,-99.99,,,0.00,Acu-Link.com,2013-02-06 05:23:00,
2013-02-06 00:39:00,27.1,26.6,29.85,West,270,2.7,-999.0,98,-99.99,,,0.00,Acu-Link.com,2013-02-06 05:39:00,
2013-02-06 00:54:00,27.1,26.6,29.85,West,270,2.2,-999.0,98,-99.99,,,0.00,Acu-Link.com,2013-02-06 05:54:00,
2013-02-06 01:09:00,26.8,26.3,29.86,SSW,202,2.7,-999.0,98,-99.99,,,0.00,Acu-Link.com,2013-02-06 06:09:00,
2013-02-06 01:24:00,27.3,26.8,29.85,WSW,247,2.7,-999.0,98,-99.99,,,0.00,Acu-Link.com,2013-02-06 06:24:00,
2013-02-06 01:40:00,27.3,26.8,29.86,SW,225,4.2,-999.0,98,-99.99,,,0.00,Acu-Link.com,2013-02-06 06:40:00,
2013-02-06 01:55:00,27.3,26.8,29.87,WNW,292,0.0,-999.0,98,-99.99,,,0.00,Acu-Link.com,2013-02-06 06:55:00,
2013-02-06 02:10:00,27.3,26.8,29.89,SE,135,3.2,-999.0,98,-99.99,,,0.00,Acu-Link.com,2013-02-06 07:10:00,
2013-02-06 02:26:00,27.3,26.8,29.89,West,270,2.2,-999.0,98,-99.99,,,0.00,Acu-Link.com,2013-02-06 07:26:00,
2013-02-06 02:41:00,27.3,24.2,29.90,West,270,3.7,-999.0,88,-99.99,,,0.00,Acu-Link.com,2013-02-06 07:41:00,
2013-02-06 02:56:00,27.3,23.4,29.91,West,270,6.8,-999.0,85,-99.99,,,0.00,Acu-Link.com,2013-02-06 07:56:00,
2013-02-06 03:12:00,27.3,23.7,29.91,WNW,292,6.3,-999.0,86,-99.99,,,0.00,Acu-Link.com,2013-02-06 08:12:00,
2013-02-06 03:27:00,27.3,23.7,29.91,SW,225,0.0,-999.0,86,-99.99,,,0.00,Acu-Link.com,2013-02-06 08:27:00,
2013-02-06 03:42:00,27.3,24.0,29.91,SW,225,1.7,-999.0,87,-99.99,,,0.00,Acu-Link.com,2013-02-06 08:42:00,
2013-02-06 03:57:00,27.3,24.0,29.92,West,270,0.0,-999.0,87,-99.99,,,0.00,Acu-Link.com,2013-02-06 08:57:00,
2013-02-06 04:13:00,27.3,24.0,29.95,West,270,1.1,-999.0,87,-99.99,,,0.00,Acu-Link.com,2013-02-06 09:13:00,
2013-02-06 04:28:00,27.3,26.8,29.95,SSW,202,0.0,-999.0,98,-99.99,,,0.00,Acu-Link.com,2013-02-06 09:28:00,
2013-02-06 04:43:00,27.3,26.8,29.96,WNW,292,0.0,-999.0,98,-99.99,,,0.00,Acu-Link.com,2013-02-06 09:43:00,
2013-02-06 04:59:00,27.5,27.0,29.96,WSW,247,0.0,-999.0,98,-99.99,,,0.00,Acu-Link.com,2013-02-06 09:59:00,
2013-02-06 05:14:00,27.5,27.0,29.97,SE,135,2.7,-999.0,98,-99.99,,,0.00,Acu-Link.com,2013-02-06 10:14:00,
2013-02-06 05:29:00,27.5,27.0,29.96,WSW,247,2.7,-999.0,98,-99.99,,,0.00,Acu-Link.com,2013-02-06 10:29:00,
2013-02-06 05:45:00,27.5,27.0,29.97,West,270,1.7,-999.0,98,-99.99,,,0.00,Acu-Link.com,2013-02-06 10:45:00,
2013-02-06 06:00:00,27.7,27.2,30.00,NNE,22,0.0,-999.0,98,-99.99,,,0.00,Acu-Link.com,2013-02-06 11:00:00,
2013-02-06 06:15:00,27.7,27.2,30.01,ESE,112,2.2,-999.0,98,-99.99,,,0.00,Acu-Link.com,2013-02-06 11:15:00,
2013-02-06 06:30:00,27.7,27.2,30.02,West,270,2.2,-999.0,98,-99.99,,,0.00,Acu-Link.com,2013-02-06 11:30:00,
2013-02-06 06:46:00,27.7,27.2,30.02,WSW,247,2.2,-999.0,98,-99.99,,,0.00,Acu-Link.com,2013-02-06 11:46:00,
2013-02-06 07:01:00,27.7,27.2,30.03,SW,225,7.3,-999.0,98,-99.99,,,0.00,Acu-Link.com,2013-02-06 12:01:00,
2013-02-06 07:16:00,27.5,27.0,30.02,West,270,4.7,-999.0,98,-99.99,,,0.00,Acu-Link.com,2013-02-06 12:16:00,
2013-02-06 07:32:00,27.5,24.4,30.02,West,270,0.0,-999.0,88,-99.99,,,0.00,Acu-Link.com,2013-02-06 12:32:00,
2013-02-06 07:47:00,27.7,24.3,30.03,West,270,3.2,-999.0,87,-99.99,,,0.00,Acu-Link.com,2013-02-06 12:47:00,
2013-02-06 08:02:00,27.7,24.3,30.05,WNW,292,4.2,-999.0,87,-99.99,,,0.00,Acu-Link.com,2013-02-06 13:02:00,
2013-02-06 08:18:00,27.7,24.3,30.06,West,270,3.2,-999.0,87,-99.99,,,0.00,Acu-Link.com,2013-02-06 13:18:00,
2013-02-06 08:33:00,27.7,24.3,30.07,WNW,292,3.7,-999.0,87,-99.99,,,0.00,Acu-Link.com,2013-02-06 13:33:00,
2013-02-06 08:48:00,27.7,23.5,30.07,WNW,292,5.3,-999.0,84,-99.99,,,0.00,Acu-Link.com,2013-02-06 13:48:00,
2013-02-06 09:03:00,27.9,22.8,30.07,West,270,9.4,-999.0,81,-99.99,,,0.00,Acu-Link.com,2013-02-06 14:03:00,
2013-02-06 09:18:00,27.9,22.2,30.09,WNW,292,7.3,-999.0,79,-99.99,,,0.00,Acu-Link.com,2013-02-06 14:18:00,
2013-02-06 09:34:00,28.2,22.5,30.09,WSW,247,3.2,-999.0,79,-99.99,,,0.00,Acu-Link.com,2013-02-06 14:34:00,
2013-02-06 09:49:00,28.6,22.9,30.08,West,270,3.7,-999.0,79,-99.99,,,0.00,Acu-Link.com,2013-02-06 14:49:00,
2013-02-06 10:04:00,28.0,22.6,30.10,West,270,7.8,-999.0,80,-99.99,,,0.00,Acu-Link.com,2013-02-06 15:04:00,
2013-02-06 10:19:00,27.9,22.5,30.11,West,270,6.3,-999.0,80,-99.99,,,0.00,Acu-Link.com,2013-02-06 15:19:00,
2013-02-06 10:35:00,27.7,22.6,30.11,West,270,6.8,-999.0,81,-99.99,,,0.00,Acu-Link.com,2013-02-06 15:35:00,
2013-02-06 10:50:00,26.6,21.6,30.13,WNW,292,9.9,-999.0,81,-99.99,,,0.00,Acu-Link.com,2013-02-06 15:50:00,
2013-02-06 11:05:00,27.0,21.7,30.13,West,270,4.7,-999.0,80,-99.99,,,0.00,Acu-Link.com,2013-02-06 16:05:00,
2013-02-06 11:20:00,26.4,21.4,30.14,West,270,8.9,-999.0,81,-99.99,,,0.00,Acu-Link.com,2013-02-06 16:20:00,
2013-02-06 11:35:00,25.9,21.7,30.14,WNW,292,5.3,-999.0,84,-99.99,,,0.00,Acu-Link.com,2013-02-06 16:35:00,
2013-02-06 11:51:00,27.0,21.4,30.13,West,270,7.3,-999.0,79,-99.99,,,0.00,Acu-Link.com,2013-02-06 16:51:00,
2013-02-06 12:06:00,28.4,22.1,30.13,West,270,5.8,-999.0,77,-99.99,,,0.00,Acu-Link.com,2013-02-06 17:06:00,
2013-02-06 12:21:00,28.2,20.7,30.13,West,270,4.2,-999.0,73,-99.99,,,0.00,Acu-Link.com,2013-02-06 17:21:00,
2013-02-06 12:36:00,27.9,19.7,30.14,West,270,5.8,-999.0,71,-99.99,,,0.00,Acu-Link.com,2013-02-06 17:36:00,
2013-02-06 12:52:00,29.3,20.8,30.14,NNW,337,6.8,-999.0,70,-99.99,,,0.00,Acu-Link.com,2013-02-06 17:52:00,
2013-02-06 13:07:00,29.1,20.2,30.12,WNW,292,6.3,-999.0,69,-99.99,,,0.00,Acu-Link.com,2013-02-06 18:07:00,
2013-02-06 13:22:00,29.3,19.0,30.13,WNW,292,7.3,-999.0,65,-99.99,,,0.00,Acu-Link.com,2013-02-06 18:22:00,
2013-02-06 13:37:00,29.5,18.8,30.13,WNW,292,7.3,-999.0,64,-99.99,,,0.00,Acu-Link.com,2013-02-06 18:37:00,
2013-02-06 13:53:00,28.8,17.8,30.14,WNW,292,7.3,-999.0,63,-99.99,,,0.00,Acu-Link.com,2013-02-06 18:53:00,
2013-02-06 14:08:00,29.8,18.0,30.13,WNW,292,6.3,-999.0,61,-99.99,,,0.00,Acu-Link.com,2013-02-06 19:08:00,
2013-02-06 14:23:00,30.4,18.2,30.13,NNW,337,2.7,-999.0,60,-99.99,,,0.00,Acu-Link.com,2013-02-06 19:23:00,
2013-02-06 14:39:00,33.3,19.7,30.14,West,270,4.2,-999.0,57,-99.99,,,0.00,Acu-Link.com,2013-02-06 19:39:00,
2013-02-06 14:54:00,32.2,17.9,30.15,WNW,292,6.8,-999.0,55,-99.99,,,0.00,Acu-Link.com,2013-02-06 19:54:00,
2013-02-06 15:09:00,33.3,17.6,30.16,West,270,5.8,-999.0,52,-99.99,,,0.00,Acu-Link.com,2013-02-06 20:09:00,
2013-02-06 15:25:00,30.6,16.8,30.16,West,270,3.7,-999.0,56,-99.99,,,0.00,Acu-Link.com,2013-02-06 20:25:00,
2013-02-06 15:40:00,30.9,17.1,30.16,NW,315,3.7,-999.0,56,-99.99,,,0.00,Acu-Link.com,2013-02-06 20:40:00,
2013-02-06 15:55:00,30.7,16.5,30.16,South,180,3.2,-999.0,55,-99.99,,,0.00,Acu-Link.com,2013-02-06 20:55:00,
2013-02-06 16:10:00,30.7,16.5,30.17,WNW,292,3.2,-999.0,55,-99.99,,,0.00,Acu-Link.com,2013-02-06 21:10:00,
2013-02-06 16:26:00,29.8,16.0,30.17,WNW,292,4.7,-999.0,56,-99.99,,,0.00,Acu-Link.com,2013-02-06 21:26:00,
2013-02-06 16:41:00,29.5,16.2,30.17,WNW,292,4.2,-999.0,57,-99.99,,,0.00,Acu-Link.com,2013-02-06 21:41:00,
2013-02-06 16:56:00,29.3,16.0,30.17,West,270,0.0,-999.0,57,-99.99,,,0.00,Acu-Link.com,2013-02-06 21:56:00,
2013-02-06 17:12:00,29.1,15.8,30.17,West,270,2.7,-999.0,57,-99.99,,,0.00,Acu-Link.com,2013-02-06 22:12:00,
2013-02-06 17:27:00,28.8,15.5,30.18,West,270,3.2,-999.0,57,-99.99,,,0.00,Acu-Link.com,2013-02-06 22:27:00,
2013-02-06 17:42:00,27.7,14.9,30.19,WNW,292,0.0,-999.0,58,-99.99,,,0.00,Acu-Link.com,2013-02-06 22:42:00,
2013-02-06 17:57:00,27.0,15.0,30.17,WNW,292,2.7,-999.0,60,-99.99,,,0.00,Acu-Link.com,2013-02-06 22:57:00,
2013-02-06 18:13:00,26.1,15.3,30.19,WNW,292,0.0,-999.0,63,-99.99,,,0.00,Acu-Link.com,2013-02-06 23:13:00,
2013-02-06 18:28:00,25.0,14.6,30.19,WNW,292,0.0,-999.0,64,-99.99,,,0.00,Acu-Link.com,2013-02-06 23:28:00,
2013-02-06 18:43:00,24.4,14.0,30.20,NNW,337,0.0,-999.0,64,-99.99,,,0.00,Acu-Link.com,2013-02-06 23:43:00,
2013-02-06 18:59:00,23.7,13.7,30.20,NE,45,0.0,-999.0,65,-99.99,,,0.00,Acu-Link.com,2013-02-06 23:59:00,
2013-02-06 19:14:00,23.4,13.7,30.19,ESE,112,0.0,-999.0,66,-99.99,,,0.00,Acu-Link.com,2013-02-07 00:14:00,
2013-02-06 19:29:00,23.2,13.9,30.20,SW,225,0.0,-999.0,67,-99.99,,,0.00,Acu-Link.com,2013-02-07 00:29:00,
2013-02-06 19:44:00,22.8,14.2,30.20,SSE,157,0.0,-999.0,69,-99.99,,,0.00,Acu-Link.com,2013-02-07 00:44:00,
2013-02-06 20:00:00,22.8,13.8,30.20,SSE,157,0.0,-999.0,68,-99.99,,,0.00,Acu-Link.com,2013-02-07 01:00:00,
2013-02-06 20:15:00,22.3,13.4,30.20,ESE,112,0.0,-999.0,68,-99.99,,,0.00,Acu-Link.com,2013-02-07 01:15:00,
2013-02-06 20:30:00,22.1,14.2,30.22,WNW,292,2.2,-999.0,71,-99.99,,,0.00,Acu-Link.com,2013-02-07 01:30:00,
2013-02-06 20:45:00,22.3,16.2,30.22,NNW,337,1.1,-999.0,77,-99.99,,,0.00,Acu-Link.com,2013-02-07 01:45:00,
2013-02-06 21:01:00,21.9,14.9,30.22,North,0,0.0,-999.0,74,-99.99,,,0.00,Acu-Link.com,2013-02-07 02:01:00,
2013-02-06 21:16:00,21.9,13.6,30.22,ESE,112,0.0,-999.0,70,-99.99,,,0.00,Acu-Link.com,2013-02-07 02:16:00,
2013-02-06 21:31:00,21.7,13.8,30.22,ENE,67,0.0,-999.0,71,-99.99,,,0.00,Acu-Link.com,2013-02-07 02:31:00,
2013-02-06 21:47:00,22.8,14.8,30.22,ESE,112,0.0,-999.0,71,-99.99,,,0.00,Acu-Link.com,2013-02-07 02:47:00,
2013-02-06 22:02:00,22.5,14.9,30.22,ESE,112,1.7,-999.0,72,-99.99,,,0.00,Acu-Link.com,2013-02-07 03:02:00,
2013-02-06 22:17:00,22.3,15.3,30.22,NW,315,0.0,-999.0,74,-99.99,,,0.00,Acu-Link.com,2013-02-07 03:17:00,
2013-02-06 22:32:00,21.9,14.6,30.21,NE,45,0.0,-999.0,73,-99.99,,,0.00,Acu-Link.com,2013-02-07 03:32:00,
2013-02-06 22:48:00,21.7,14.4,30.20,NE,45,0.0,-999.0,73,-99.99,,,0.00,Acu-Link.com,2013-02-07 03:48:00,
2013-02-06 23:03:00,21.7,14.4,30.19,ESE,112,4.2,-999.0,73,-99.99,,,0.00,Acu-Link.com,2013-02-07 04:03:00,
2013-02-06 23:18:00,22.1,14.2,30.17,ESE,112,3.2,-999.0,71,-99.99,,,0.00,Acu-Link.com,2013-02-07 04:18:00,
2013-02-06 23:34:00,21.9,14.0,30.18,East,90,4.2,-999.0,71,-99.99,,,0.00,Acu-Link.com,2013-02-07 04:34:00,
2013-02-06 23:49:00,21.0,13.4,30.20,SSE,157,2.2,-999.0,72,-99.99,,,0.00,Acu-Link.com,2013-02-07 04:49:00,